^^
Saratoga-Weather Station Historical Data
Daily Summary for April 20, 2020 Units:  Both    English   Metric
Daily Weekly Monthly Yearly Custom
  High: Low: Average:
Temperature: 80.8 °F /  27.1 °C 56.3 °F /  13.5 °C 66.2 °F /  19 °C
Dew Point: 54.3 °F /  12.4 °C 42.8 °F /  6 °C 49.1 °F /  9.5 °C
Humidity: 76% 28% 56%
Wind Speed: 4mph /  6.4km/h - 0.6mph /  1km/h
Wind Gust: 8mph /  12.9km/h - -
Wind- - SSE
Pressure: 30 in /  1014.6 hPa 29.9 in /  1012.5 hPa -
Precipitation: 0 in /  0.0 mm    
Historical Graphs
 
 
Tabular Data for April 20, 2020
Time Temperature Dew Point Pressure Wind Wind Speed Wind Gust Humidity Rainfall Rate (Hourly) solar
00:02 63.1 °F /  17.3 °C 54.3 °F /  12.4 °C 30in /  1014.6hPa Calm     73% 0in /  0.0mm 0 W/m2
00:07 63 °F /  17.2 °C 54.1 °F /  12.3 °C 30in /  1014.6hPa Calm     73% 0in /  0.0mm 0 W/m2
00:12 63 °F /  17.2 °C 54.1 °F /  12.3 °C 30in /  1014.6hPa Calm   2mph /  3.2km/h 73% 0in /  0.0mm 0 W/m2
00:18 62.8 °F /  17.1 °C 54 °F /  12.2 °C 30in /  1014.6hPa Calm     73% 0in /  0.0mm 0 W/m2
00:23 62.6 °F /  17 °C 53.8 °F /  12.1 °C 30in /  1014.6hPa Calm   2mph /  3.2km/h 73% 0in /  0.0mm 0 W/m2
00:28 62.4 °F /  16.9 °C 53.6 °F /  12 °C 30in /  1014.6hPa Calm     73% 0in /  0.0mm 0 W/m2
00:33 62.4 °F /  16.9 °C 53.6 °F /  12 °C 30in /  1014.2hPa Calm     73% 0in /  0.0mm 0 W/m2
00:38 62.2 °F /  16.8 °C 53.1 °F /  11.7 °C 30in /  1014.2hPa Calm     72% 0in /  0.0mm 0 W/m2
00:43 62.1 °F /  16.7 °C 52.9 °F /  11.6 °C 30in /  1014.2hPa Calm     72% 0in /  0.0mm 0 W/m2
00:48 61.9 °F /  16.6 °C 52.7 °F /  11.5 °C 30in /  1014.2hPa Calm     72% 0in /  0.0mm 0 W/m2
00:53 61.7 °F /  16.5 °C 52.5 °F /  11.4 °C 30in /  1014.2hPa SSW 0.9mph /  1.4km/h 1mph /  1.6km/h 72% 0in /  0.0mm 0 W/m2
00:58 61.9 °F /  16.6 °C 52.7 °F /  11.5 °C 30in /  1014.2hPa Calm   1mph /  1.6km/h 72% 0in /  0.0mm 0 W/m2
01:03 61.9 °F /  16.6 °C 52.3 °F /  11.3 °C 30in /  1014.2hPa Calm   2mph /  3.2km/h 71% 0in /  0.0mm 0 W/m2
01:08 62.1 °F /  16.7 °C 51.8 °F /  11 °C 30in /  1014.2hPa SSW 0.9mph /  1.4km/h 1mph /  1.6km/h 69% 0in /  0.0mm 0 W/m2
01:13 62.2 °F /  16.8 °C 52 °F /  11.1 °C 30in /  1014.2hPa Calm   2mph /  3.2km/h 69% 0in /  0.0mm 0 W/m2
01:18 62.2 °F /  16.8 °C 51.6 °F /  10.9 °C 30in /  1014.2hPa Calm   2mph /  3.2km/h 68% 0in /  0.0mm 0 W/m2
01:23 62.2 °F /  16.8 °C 51.6 °F /  10.9 °C 30in /  1014.2hPa Calm     68% 0in /  0.0mm 0 W/m2
01:28 62.1 °F /  16.7 °C 51.4 °F /  10.8 °C 30in /  1014.2hPa SSW 0.9mph /  1.4km/h 2mph /  3.2km/h 68% 0in /  0.0mm 0 W/m2
01:33 61.9 °F /  16.6 °C 51.6 °F /  10.9 °C 30in /  1014.2hPa SSW 0.9mph /  1.4km/h 1mph /  1.6km/h 69% 0in /  0.0mm 0 W/m2
01:38 61.5 °F /  16.4 °C 51.3 °F /  10.7 °C 30in /  1014.2hPa SSW 0.9mph /  1.4km/h 1mph /  1.6km/h 69% 0in /  0.0mm 0 W/m2
01:43 61.3 °F /  16.3 °C 51.1 °F /  10.6 °C 30in /  1014.2hPa Calm   1mph /  1.6km/h 69% 0in /  0.0mm 0 W/m2
01:48 61.3 °F /  16.3 °C 51.1 °F /  10.6 °C 30in /  1014.2hPa Calm     69% 0in /  0.0mm 0 W/m2
01:53 61.2 °F /  16.2 °C 50.9 °F /  10.5 °C 30in /  1014.2hPa Calm     69% 0in /  0.0mm 0 W/m2
01:58 61 °F /  16.1 °C 50.7 °F /  10.4 °C 30in /  1014.2hPa Calm     69% 0in /  0.0mm 0 W/m2
02:03 60.6 °F /  15.9 °C 50 °F /  10 °C 30in /  1014.2hPa Calm   1mph /  1.6km/h 68% 0in /  0.0mm 0 W/m2
02:08 60.6 °F /  15.9 °C 50 °F /  10 °C 30in /  1014.2hPa SSW 0.9mph /  1.4km/h 1mph /  1.6km/h 68% 0in /  0.0mm 0 W/m2
02:13 60.4 °F /  15.8 °C 49.8 °F /  9.9 °C 30in /  1014.2hPa Calm     68% 0in /  0.0mm 0 W/m2
02:18 60.4 °F /  15.8 °C 49.8 °F /  9.9 °C 30in /  1014.2hPa Calm   1mph /  1.6km/h 68% 0in /  0.0mm 0 W/m2
02:23 60.3 °F /  15.7 °C 50 °F /  10 °C 30in /  1014.2hPa Calm   1mph /  1.6km/h 69% 0in /  0.0mm 0 W/m2
02:28 60.1 °F /  15.6 °C 49.5 °F /  9.7 °C 30in /  1014.2hPa Calm     68% 0in /  0.0mm 0 W/m2
02:33 59.9 °F /  15.5 °C 49.6 °F /  9.8 °C 30in /  1014.2hPa Calm     69% 0in /  0.0mm 0 W/m2
02:38 59.7 °F /  15.4 °C 49.5 °F /  9.7 °C 30in /  1014.2hPa Calm     69% 0in /  0.0mm 0 W/m2
02:43 59.5 °F /  15.3 °C 49.8 °F /  9.9 °C 30in /  1014.2hPa Calm     70% 0in /  0.0mm 0 W/m2
02:48 59.4 °F /  15.2 °C 49.6 °F /  9.8 °C 30in /  1014.2hPa Calm     70% 0in /  0.0mm 0 W/m2
02:53 59.2 °F /  15.1 °C 49.8 °F /  9.9 °C 30in /  1014.2hPa Calm     71% 0in /  0.0mm 0 W/m2
02:58 59 °F /  15 °C 49.6 °F /  9.8 °C 30in /  1014.2hPa Calm   1mph /  1.6km/h 71% 0in /  0.0mm 0 W/m2
03:03 58.8 °F /  14.9 °C 49.5 °F /  9.7 °C 30in /  1014.2hPa Calm     71% 0in /  0.0mm 0 W/m2
03:08 58.6 °F /  14.8 °C 49.6 °F /  9.8 °C 30in /  1014.2hPa Calm     72% 0in /  0.0mm 0 W/m2
03:13 58.5 °F /  14.7 °C 49.8 °F /  9.9 °C 30in /  1014.2hPa Calm     73% 0in /  0.0mm 0 W/m2
03:18 58.3 °F /  14.6 °C 49.6 °F /  9.8 °C 30in /  1014.2hPa Calm     73% 0in /  0.0mm 0 W/m2
03:23 58.3 °F /  14.6 °C 50 °F /  10 °C 30in /  1014.2hPa SSW 0.9mph /  1.4km/h 2mph /  3.2km/h 74% 0in /  0.0mm 0 W/m2
03:28 58.1 °F /  14.5 °C 49.8 °F /  9.9 °C 30in /  1014.2hPa Calm     74% 0in /  0.0mm 0 W/m2
03:34 58.1 °F /  14.5 °C 49.5 °F /  9.7 °C 30in /  1014.2hPa Calm     73% 0in /  0.0mm 0 W/m2
03:39 58.1 °F /  14.5 °C 49.5 °F /  9.7 °C 30in /  1014.2hPa Calm     73% 0in /  0.0mm 0 W/m2
03:44 57.9 °F /  14.4 °C 49.6 °F /  9.8 °C 30in /  1014.2hPa Calm     74% 0in /  0.0mm 0 W/m2
03:54 57.7 °F /  14.3 °C 49.1 °F /  9.5 °C 30in /  1014.2hPa Calm     73% 0in /  0.0mm 0 W/m2
03:59 57.7 °F /  14.3 °C 49.1 °F /  9.5 °C 30in /  1014.2hPa Calm     73% 0in /  0.0mm 0 W/m2
04:04 57.7 °F /  14.3 °C 49.1 °F /  9.5 °C 30in /  1014.2hPa Calm     73% 0in /  0.0mm 0 W/m2
04:09 57.7 °F /  14.3 °C 49.1 °F /  9.5 °C 30in /  1014.2hPa Calm     73% 0in /  0.0mm 0 W/m2
04:14 57.6 °F /  14.2 °C 48.9 °F /  9.4 °C 30in /  1014.2hPa Calm     73% 0in /  0.0mm 0 W/m2
04:19 57.6 °F /  14.2 °C 48.9 °F /  9.4 °C 30in /  1014.2hPa Calm     73% 0in /  0.0mm 0 W/m2
04:24 57.4 °F /  14.1 °C 49.1 °F /  9.5 °C 30in /  1014.2hPa Calm   1mph /  1.6km/h 74% 0in /  0.0mm 0 W/m2
04:29 57.4 °F /  14.1 °C 49.1 °F /  9.5 °C 30in /  1014.2hPa Calm     74% 0in /  0.0mm 0 W/m2
04:34 57.2 °F /  14 °C 48.9 °F /  9.4 °C 30in /  1014.2hPa Calm   1mph /  1.6km/h 74% 0in /  0.0mm 0 W/m2
04:39 57 °F /  13.9 °C 48.7 °F /  9.3 °C 30in /  1014.2hPa Calm     74% 0in /  0.0mm 0 W/m2
04:44 57 °F /  13.9 °C 48.7 °F /  9.3 °C 29.9in /  1013.9hPa Calm     74% 0in /  0.0mm 0 W/m2
04:49 56.8 °F /  13.8 °C 48.6 °F /  9.2 °C 29.9in /  1013.9hPa Calm     74% 0in /  0.0mm 0 W/m2
04:54 56.8 °F /  13.8 °C 48.9 °F /  9.4 °C 30in /  1014.2hPa Calm     75% 0in /  0.0mm 0 W/m2
04:59 56.7 °F /  13.7 °C 48.7 °F /  9.3 °C 30in /  1014.2hPa Calm     75% 0in /  0.0mm 0 W/m2
05:04 56.7 °F /  13.7 °C 48.7 °F /  9.3 °C 29.9in /  1013.9hPa Calm     75% 0in /  0.0mm 0 W/m2
05:09 56.7 °F /  13.7 °C 48.7 °F /  9.3 °C 29.9in /  1013.9hPa Calm     75% 0in /  0.0mm 0 W/m2
05:14 56.7 °F /  13.7 °C 48.7 °F /  9.3 °C 29.9in /  1013.9hPa Calm     75% 0in /  0.0mm 0 W/m2
05:19 56.7 °F /  13.7 °C 48.7 °F /  9.3 °C 29.9in /  1013.9hPa Calm     75% 0in /  0.0mm 0 W/m2
05:24 56.8 °F /  13.8 °C 48.9 °F /  9.4 °C 29.9in /  1013.9hPa SSW 0.9mph /  1.4km/h 1mph /  1.6km/h 75% 0in /  0.0mm 0 W/m2
05:29 56.8 °F /  13.8 °C 48.6 °F /  9.2 °C 29.9in /  1013.5hPa Calm   1mph /  1.6km/h 74% 0in /  0.0mm 0 W/m2
05:34 57 °F /  13.9 °C 48.7 °F /  9.3 °C 29.9in /  1013.5hPa Calm     74% 0in /  0.0mm 0 W/m2
05:39 57.2 °F /  14 °C 48.9 °F /  9.4 °C 29.9in /  1013.5hPa Calm     74% 0in /  0.0mm 0 W/m2
05:44 57.4 °F /  14.1 °C 49.1 °F /  9.5 °C 29.9in /  1013.5hPa SSW 0.9mph /  1.4km/h 1mph /  1.6km/h 74% 0in /  0.0mm 0 W/m2
05:49 57.6 °F /  14.2 °C 48.6 °F /  9.2 °C 29.9in /  1013.9hPa SSW 0.9mph /  1.4km/h 2mph /  3.2km/h 72% 0in /  0.0mm 0 W/m2
05:54 57.7 °F /  14.3 °C 48.7 °F /  9.3 °C 29.9in /  1013.9hPa Calm   1mph /  1.6km/h 72% 0in /  0.0mm 0 W/m2
05:59 57.9 °F /  14.4 °C 48.9 °F /  9.4 °C 29.9in /  1013.9hPa Calm     72% 0in /  0.0mm 0 W/m2
06:05 57.9 °F /  14.4 °C 48.9 °F /  9.4 °C 29.9in /  1013.5hPa Calm     72% 0in /  0.0mm 0 W/m2
06:10 57.9 °F /  14.4 °C 48.9 °F /  9.4 °C 29.9in /  1013.5hPa Calm   1mph /  1.6km/h 72% 0in /  0.0mm 0 W/m2
06:15 57.7 °F /  14.3 °C 49.1 °F /  9.5 °C 29.9in /  1013.5hPa Calm   1mph /  1.6km/h 73% 0in /  0.0mm 0 W/m2
06:20 57.6 °F /  14.2 °C 48.9 °F /  9.4 °C 29.9in /  1013.5hPa Calm     73% 0in /  0.0mm 0 W/m2
06:25 57.6 °F /  14.2 °C 48.9 °F /  9.4 °C 29.9in /  1013.5hPa Calm   1mph /  1.6km/h 73% 0in /  0.0mm 0 W/m2
06:30 57.4 °F /  14.1 °C 49.1 °F /  9.5 °C 29.9in /  1013.5hPa Calm     74% 0in /  0.0mm 0 W/m2
06:35 57.4 °F /  14.1 °C 49.1 °F /  9.5 °C 29.9in /  1013.5hPa Calm     74% 0in /  0.0mm 0 W/m2
06:40 57.4 °F /  14.1 °C 49.1 °F /  9.5 °C 29.9in /  1013.5hPa Calm     74% 0in /  0.0mm 0 W/m2
06:45 57.2 °F /  14 °C 48.9 °F /  9.4 °C 29.9in /  1013.5hPa Calm     74% 0in /  0.0mm 0 W/m2
06:50 57 °F /  13.9 °C 48.7 °F /  9.3 °C 29.9in /  1013.5hPa Calm     74% 0in /  0.0mm 0 W/m2
06:55 57 °F /  13.9 °C 48.7 °F /  9.3 °C 29.9in /  1013.5hPa Calm     74% 0in /  0.0mm 0 W/m2
07:00 56.8 °F /  13.8 °C 48.9 °F /  9.4 °C 29.9in /  1013.5hPa Calm     75% 0in /  0.0mm 0 W/m2
07:05 56.8 °F /  13.8 °C 48.9 °F /  9.4 °C 29.9in /  1013.5hPa Calm     75% 0in /  0.0mm 0 W/m2
07:10 56.8 °F /  13.8 °C 48.9 °F /  9.4 °C 29.9in /  1013.5hPa Calm     75% 0in /  0.0mm 0 W/m2
07:15 56.7 °F /  13.7 °C 48.4 °F /  9.1 °C 29.9in /  1013.5hPa Calm     74% 0in /  0.0mm 0 W/m2
07:20 56.5 °F /  13.6 °C 48.7 °F /  9.3 °C 29.9in /  1013.5hPa Calm   1mph /  1.6km/h 75% 0in /  0.0mm 0 W/m2
07:25 56.5 °F /  13.6 °C 48.7 °F /  9.3 °C 29.9in /  1013.9hPa SSW 2mph /  3.2km/h 2mph /  3.2km/h 75% 0in /  0.0mm 0 W/m2
07:30 56.5 °F /  13.6 °C 48.7 °F /  9.3 °C 29.9in /  1013.9hPa Calm     75% 0in /  0.0mm 7 W/m2
07:35 56.5 °F /  13.6 °C 48.7 °F /  9.3 °C 29.9in /  1013.5hPa SSW 0.9mph /  1.4km/h 1mph /  1.6km/h 75% 0in /  0.0mm 9 W/m2
07:40 56.5 °F /  13.6 °C 48.7 °F /  9.3 °C 29.9in /  1013.9hPa Calm     75% 0in /  0.0mm 11 W/m2
07:45 56.3 °F /  13.5 °C 48.9 °F /  9.4 °C 29.9in /  1013.9hPa Calm   1mph /  1.6km/h 76% 0in /  0.0mm 14 W/m2
07:50 56.5 °F /  13.6 °C 48.7 °F /  9.3 °C 29.9in /  1013.9hPa SSW 0.9mph /  1.4km/h 1mph /  1.6km/h 75% 0in /  0.0mm 16 W/m2
07:55 56.7 °F /  13.7 °C 48.7 °F /  9.3 °C 29.9in /  1013.9hPa Calm     75% 0in /  0.0mm 18 W/m2
08:00 56.8 °F /  13.8 °C 48.9 °F /  9.4 °C 29.9in /  1013.9hPa SSW 0.9mph /  1.4km/h 1mph /  1.6km/h 75% 0in /  0.0mm 23 W/m2
08:05 57 °F /  13.9 °C 48.7 °F /  9.3 °C 29.9in /  1013.9hPa Calm   1mph /  1.6km/h 74% 0in /  0.0mm 26 W/m2
08:10 57.4 °F /  14.1 °C 49.1 °F /  9.5 °C 29.9in /  1013.9hPa Calm     74% 0in /  0.0mm 30 W/m2
08:15 57.6 °F /  14.2 °C 49.3 °F /  9.6 °C 29.9in /  1013.9hPa Calm     74% 0in /  0.0mm 33 W/m2
08:20 57.7 °F /  14.3 °C 49.1 °F /  9.5 °C 29.9in /  1013.9hPa Calm     73% 0in /  0.0mm 35 W/m2
08:25 58.3 °F /  14.6 °C 49.3 °F /  9.6 °C 29.9in /  1013.9hPa Calm     72% 0in /  0.0mm 40 W/m2
08:30 58.5 °F /  14.7 °C 49.5 °F /  9.7 °C 29.9in /  1013.9hPa Calm     72% 0in /  0.0mm 62 W/m2
08:35 58.8 °F /  14.9 °C 49.8 °F /  9.9 °C 29.9in /  1013.9hPa Calm     72% 0in /  0.0mm 65 W/m2
08:40 58.8 °F /  14.9 °C 49.1 °F /  9.5 °C 30in /  1014.2hPa Calm     70% 0in /  0.0mm 51 W/m2
08:45 59.2 °F /  15.1 °C 49.1 °F /  9.5 °C 30in /  1014.2hPa Calm     69% 0in /  0.0mm 53 W/m2
08:50 59.4 °F /  15.2 °C 48.7 °F /  9.3 °C 30in /  1014.2hPa Calm     68% 0in /  0.0mm 56 W/m2
08:55 59.7 °F /  15.4 °C 48.7 °F /  9.3 °C 30in /  1014.2hPa Calm     67% 0in /  0.0mm 58 W/m2
09:00 60.1 °F /  15.6 °C 49.5 °F /  9.7 °C 30in /  1014.6hPa Calm     68% 0in /  0.0mm 76 W/m2
09:05 60.3 °F /  15.7 °C 48.9 °F /  9.4 °C 30in /  1014.6hPa Calm     66% 0in /  0.0mm 72 W/m2
09:10 60.6 °F /  15.9 °C 49.6 °F /  9.8 °C 30in /  1014.6hPa Calm     67% 0in /  0.0mm 132 W/m2
09:15 61 °F /  16.1 °C 48.7 °F /  9.3 °C 30in /  1014.2hPa Calm     64% 0in /  0.0mm 77 W/m2
09:20 61.5 °F /  16.4 °C 48.7 °F /  9.3 °C 30in /  1014.6hPa Calm   2mph /  3.2km/h 63% 0in /  0.0mm 74 W/m2
09:25 62.2 °F /  16.8 °C 49.5 °F /  9.7 °C 30in /  1014.6hPa Calm     63% 0in /  0.0mm 72 W/m2
09:34 63.1 °F /  17.3 °C 49.8 °F /  9.9 °C 30in /  1014.6hPa Calm   2mph /  3.2km/h 62% 0in /  0.0mm 74 W/m2
09:40 63.3 °F /  17.4 °C 49.6 °F /  9.8 °C 30in /  1014.6hPa Calm   1mph /  1.6km/h 61% 0in /  0.0mm 76 W/m2
09:45 63.9 °F /  17.7 °C 50.2 °F /  10.1 °C 30in /  1014.6hPa Calm   2mph /  3.2km/h 61% 0in /  0.0mm 79 W/m2
09:50 64 °F /  17.8 °C 49.8 °F /  9.9 °C 30in /  1014.6hPa NE 0.9mph /  1.4km/h 1mph /  1.6km/h 60% 0in /  0.0mm 84 W/m2
09:55 64.4 °F /  18 °C 50.2 °F /  10.1 °C 30in /  1014.6hPa WSW 0.9mph /  1.4km/h 2mph /  3.2km/h 60% 0in /  0.0mm 90 W/m2
10:00 64.8 °F /  18.2 °C 50.2 °F /  10.1 °C 30in /  1014.6hPa SSE 0.9mph /  1.4km/h 1mph /  1.6km/h 59% 0in /  0.0mm 91 W/m2
10:05 64.9 °F /  18.3 °C 50.7 °F /  10.4 °C 30in /  1014.6hPa Calm   1mph /  1.6km/h 60% 0in /  0.0mm 100 W/m2
10:10 65.1 °F /  18.4 °C 50.4 °F /  10.2 °C 30in /  1014.6hPa Calm   1mph /  1.6km/h 59% 0in /  0.0mm 105 W/m2
10:15 65.3 °F /  18.5 °C 50.5 °F /  10.3 °C 30in /  1014.6hPa Calm     59% 0in /  0.0mm 113 W/m2
10:20 65.7 °F /  18.7 °C 51.4 °F /  10.8 °C 30in /  1014.6hPa Calm   1mph /  1.6km/h 60% 0in /  0.0mm 116 W/m2
10:25 66 °F /  18.9 °C 51.3 °F /  10.7 °C 30in /  1014.6hPa Calm     59% 0in /  0.0mm 123 W/m2
10:30 66.6 °F /  19.2 °C 51.3 °F /  10.7 °C 30in /  1014.6hPa Calm     58% 0in /  0.0mm 130 W/m2
10:35 66.9 °F /  19.4 °C 50.7 °F /  10.4 °C 30in /  1014.6hPa Calm   1mph /  1.6km/h 56% 0in /  0.0mm 132 W/m2
10:40 67.5 °F /  19.7 °C 50.7 °F /  10.4 °C 30in /  1014.6hPa Calm   2mph /  3.2km/h 55% 0in /  0.0mm 132 W/m2
10:45 67.8 °F /  19.9 °C 51.1 °F /  10.6 °C 30in /  1014.6hPa SSE 0.9mph /  1.4km/h 2mph /  3.2km/h 55% 0in /  0.0mm 132 W/m2
10:50 68 °F /  20 °C 51.3 °F /  10.7 °C 30in /  1014.6hPa Calm     55% 0in /  0.0mm 137 W/m2
10:55 68.2 °F /  20.1 °C 51.4 °F /  10.8 °C 30in /  1014.6hPa East 0.9mph /  1.4km/h 2mph /  3.2km/h 55% 0in /  0.0mm 142 W/m2
11:00 68.2 °F /  20.1 °C 51.4 °F /  10.8 °C 30in /  1014.6hPa ENE 0.9mph /  1.4km/h 2mph /  3.2km/h 55% 0in /  0.0mm 148 W/m2
11:05 68.2 °F /  20.1 °C 50.9 °F /  10.5 °C 30in /  1014.6hPa East 0.9mph /  1.4km/h 3mph /  4.8km/h 54% 0in /  0.0mm 151 W/m2
11:10 68.2 °F /  20.1 °C 50.9 °F /  10.5 °C 30in /  1014.6hPa ENE 0.9mph /  1.4km/h 3mph /  4.8km/h 54% 0in /  0.0mm 153 W/m2
11:15 68 °F /  20 °C 50.7 °F /  10.4 °C 30in /  1014.6hPa ESE 0.9mph /  1.4km/h 2mph /  3.2km/h 54% 0in /  0.0mm 158 W/m2
11:20 68 °F /  20 °C 50.7 °F /  10.4 °C 30in /  1014.6hPa East 2.9mph /  4.7km/h 3mph /  4.8km/h 54% 0in /  0.0mm 165 W/m2
11:25 68.2 °F /  20.1 °C 50.9 °F /  10.5 °C 30in /  1014.6hPa Calm   2mph /  3.2km/h 54% 0in /  0.0mm 171 W/m2
11:30 68.2 °F /  20.1 °C 51.4 °F /  10.8 °C 30in /  1014.6hPa East 4mph /  6.4km/h 4mph /  6.4km/h 55% 0in /  0.0mm 172 W/m2
11:35 68.2 °F /  20.1 °C 50.4 °F /  10.2 °C 30in /  1014.6hPa NE 0.9mph /  1.4km/h 2mph /  3.2km/h 53% 0in /  0.0mm 163 W/m2
11:40 68.2 °F /  20.1 °C 50.4 °F /  10.2 °C 30in /  1014.6hPa ENE 0.9mph /  1.4km/h 2mph /  3.2km/h 53% 0in /  0.0mm 172 W/m2
11:45 68 °F /  20 °C 50.2 °F /  10.1 °C 30in /  1014.6hPa ENE 0.9mph /  1.4km/h 2mph /  3.2km/h 53% 0in /  0.0mm 241 W/m2
11:50 68 °F /  20 °C 50.2 °F /  10.1 °C 30in /  1014.6hPa WNW 0.9mph /  1.4km/h 3mph /  4.8km/h 53% 0in /  0.0mm 322 W/m2
11:55 68.4 °F /  20.2 °C 50.5 °F /  10.3 °C 30in /  1014.6hPa NW 0.9mph /  1.4km/h 1mph /  1.6km/h 53% 0in /  0.0mm 585 W/m2
12:00 68.7 °F /  20.4 °C 50.4 °F /  10.2 °C 30in /  1014.6hPa Calm   2mph /  3.2km/h 52% 0in /  0.0mm 552 W/m2
12:05 69.3 °F /  20.7 °C 50.4 °F /  10.2 °C 30in /  1014.6hPa East 0.9mph /  1.4km/h 2mph /  3.2km/h 51% 0in /  0.0mm 404 W/m2
12:10 69.6 °F /  20.9 °C 50.7 °F /  10.4 °C 30in /  1014.2hPa NW 2mph /  3.2km/h 2mph /  3.2km/h 51% 0in /  0.0mm 192 W/m2
12:15 69.8 °F /  21 °C 50.4 °F /  10.2 °C 30in /  1014.6hPa East 0.9mph /  1.4km/h 2mph /  3.2km/h 50% 0in /  0.0mm 199 W/m2
12:20 70 °F /  21.1 °C 51.6 °F /  10.9 °C 30in /  1014.2hPa East 2.9mph /  4.7km/h 3mph /  4.8km/h 52% 0in /  0.0mm 287 W/m2
12:25 70 °F /  21.1 °C 51.1 °F /  10.6 °C 30in /  1014.2hPa NW 0.9mph /  1.4km/h 2mph /  3.2km/h 51% 0in /  0.0mm 374 W/m2
12:30 70.2 °F /  21.2 °C 51.3 °F /  10.7 °C 30in /  1014.2hPa Calm   2mph /  3.2km/h 51% 0in /  0.0mm 489 W/m2
12:35 70.7 °F /  21.5 °C 52.2 °F /  11.2 °C 30in /  1014.2hPa NNW 0.9mph /  1.4km/h 1mph /  1.6km/h 52% 0in /  0.0mm 501 W/m2
12:40 71.2 °F /  21.8 °C 51.6 °F /  10.9 °C 30in /  1014.2hPa ESE 2mph /  3.2km/h 3mph /  4.8km/h 50% 0in /  0.0mm 601 W/m2
12:45 71.8 °F /  22.1 °C 51.6 °F /  10.9 °C 30in /  1014.2hPa Calm   2mph /  3.2km/h 49% 0in /  0.0mm 487 W/m2
12:50 72.1 °F /  22.3 °C 53.1 °F /  11.7 °C 30in /  1014.2hPa Calm   4mph /  6.4km/h 51% 0in /  0.0mm 622 W/m2
12:55 72.9 °F /  22.7 °C 52.5 °F /  11.4 °C 30in /  1014.2hPa ENE 0.9mph /  1.4km/h 2mph /  3.2km/h 49% 0in /  0.0mm 694 W/m2
13:00 73.8 °F /  23.2 °C 52.3 °F /  11.3 °C 30in /  1014.2hPa ENE 2mph /  3.2km/h 6mph /  9.7km/h 47% 0in /  0.0mm 682 W/m2
13:05 74.5 °F /  23.6 °C 52.9 °F /  11.6 °C 30in /  1014.2hPa WNW 2mph /  3.2km/h 3mph /  4.8km/h 47% 0in /  0.0mm 673 W/m2
13:10 74.8 °F /  23.8 °C 52.7 °F /  11.5 °C 30in /  1014.2hPa ENE 0.9mph /  1.4km/h 7mph /  11.3km/h 46% 0in /  0.0mm 719 W/m2
13:15 75 °F /  23.9 °C 52.2 °F /  11.2 °C 30in /  1014.2hPa NW 0.9mph /  1.4km/h 3mph /  4.8km/h 45% 0in /  0.0mm 621 W/m2
13:20 74.8 °F /  23.8 °C 52.7 °F /  11.5 °C 29.9in /  1013.9hPa Calm   7mph /  11.3km/h 46% 0in /  0.0mm 345 W/m2
13:25 74.8 °F /  23.8 °C 52.7 °F /  11.5 °C 29.9in /  1013.9hPa SE 0.9mph /  1.4km/h 3mph /  4.8km/h 46% 0in /  0.0mm 246 W/m2
13:30 74.7 °F /  23.7 °C 52.5 °F /  11.4 °C 29.9in /  1013.9hPa SE 2mph /  3.2km/h 3mph /  4.8km/h 46% 0in /  0.0mm 302 W/m2
13:35 74.5 °F /  23.6 °C 52.9 °F /  11.6 °C 29.9in /  1013.9hPa Calm   2mph /  3.2km/h 47% 0in /  0.0mm 214 W/m2
13:40 74.1 °F /  23.4 °C 52 °F /  11.1 °C 29.9in /  1013.9hPa Calm   2mph /  3.2km/h 46% 0in /  0.0mm 432 W/m2
13:45 74.1 °F /  23.4 °C 53.2 °F /  11.8 °C 29.9in /  1013.9hPa East 2mph /  3.2km/h 4mph /  6.4km/h 48% 0in /  0.0mm 580 W/m2
13:50 74.5 °F /  23.6 °C 52.3 °F /  11.3 °C 29.9in /  1013.9hPa WSW 0.9mph /  1.4km/h 1mph /  1.6km/h 46% 0in /  0.0mm 661 W/m2
13:55 74.7 °F /  23.7 °C 53.1 °F /  11.7 °C 29.9in /  1013.9hPa East 2mph /  3.2km/h 4mph /  6.4km/h 47% 0in /  0.0mm 650 W/m2
14:00 75 °F /  23.9 °C 52.9 °F /  11.6 °C 29.9in /  1013.5hPa ESE 2.9mph /  4.7km/h 4mph /  6.4km/h 46% 0in /  0.0mm 533 W/m2
14:05 75.4 °F /  24.1 °C 52 °F /  11.1 °C 29.9in /  1013.5hPa North 2mph /  3.2km/h 2mph /  3.2km/h 44% 0in /  0.0mm 485 W/m2
14:10 75.6 °F /  24.2 °C 52.2 °F /  11.2 °C 29.9in /  1013.5hPa ENE 2mph /  3.2km/h 7mph /  11.3km/h 44% 0in /  0.0mm 501 W/m2
14:16 75.7 °F /  24.3 °C 52.3 °F /  11.3 °C 29.9in /  1013.5hPa SSE 2mph /  3.2km/h 2mph /  3.2km/h 44% 0in /  0.0mm 552 W/m2
14:21 75.7 °F /  24.3 °C 52.3 °F /  11.3 °C 29.9in /  1013.5hPa Calm   6mph /  9.7km/h 44% 0in /  0.0mm 594 W/m2
14:26 75.9 °F /  24.4 °C 52.5 °F /  11.4 °C 29.9in /  1013.5hPa SE 0.9mph /  1.4km/h 4mph /  6.4km/h 44% 0in /  0.0mm 503 W/m2
14:31 76.3 °F /  24.6 °C 52.7 °F /  11.5 °C 29.9in /  1013.2hPa Calm   6mph /  9.7km/h 44% 0in /  0.0mm 445 W/m2
14:36 76.3 °F /  24.6 °C 52.7 °F /  11.5 °C 29.9in /  1013.2hPa East 2mph /  3.2km/h 4mph /  6.4km/h 44% 0in /  0.0mm 376 W/m2
14:41 76.3 °F /  24.6 °C 52.7 °F /  11.5 °C 29.9in /  1013.2hPa Calm   1mph /  1.6km/h 44% 0in /  0.0mm 454 W/m2
14:46 76.5 °F /  24.7 °C 52.9 °F /  11.6 °C 29.9in /  1013.2hPa Calm   4mph /  6.4km/h 44% 0in /  0.0mm 499 W/m2
14:51 76.6 °F /  24.8 °C 52.5 °F /  11.4 °C 29.9in /  1013.2hPa South 2mph /  3.2km/h 6mph /  9.7km/h 43% 0in /  0.0mm 571 W/m2
14:56 76.8 °F /  24.9 °C 52.7 °F /  11.5 °C 29.9in /  1013.2hPa NNE 2mph /  3.2km/h 2mph /  3.2km/h 43% 0in /  0.0mm 643 W/m2
15:01 77 °F /  25 °C 52.2 °F /  11.2 °C 29.9in /  1013.2hPa WSW 2mph /  3.2km/h 4mph /  6.4km/h 42% 0in /  0.0mm 629 W/m2
15:06 77.5 °F /  25.3 °C 52.7 °F /  11.5 °C 29.9in /  1013.2hPa NNW 0.9mph /  1.4km/h 4mph /  6.4km/h 42% 0in /  0.0mm 650 W/m2
15:11 78.3 °F /  25.7 °C 53.2 °F /  11.8 °C 29.9in /  1013.2hPa SSW 2mph /  3.2km/h 2mph /  3.2km/h 42% 0in /  0.0mm 643 W/m2
15:16 78.6 °F /  25.9 °C 52.3 °F /  11.3 °C 29.9in /  1013.2hPa NW 2.9mph /  4.7km/h 3mph /  4.8km/h 40% 0in /  0.0mm 608 W/m2
15:21 79.2 °F /  26.2 °C 52.2 °F /  11.2 °C 29.9in /  1013.2hPa NNW 2.9mph /  4.7km/h 5mph /  8km/h 39% 0in /  0.0mm 443 W/m2
15:26 79 °F /  26.1 °C 52 °F /  11.1 °C 29.9in /  1013.2hPa East 2mph /  3.2km/h 4mph /  6.4km/h 39% 0in /  0.0mm 390 W/m2
15:31 79 °F /  26.1 °C 52.5 °F /  11.4 °C 29.9in /  1013.2hPa East 2mph /  3.2km/h 7mph /  11.3km/h 40% 0in /  0.0mm 436 W/m2
15:36 79 °F /  26.1 °C 52 °F /  11.1 °C 29.9in /  1013.2hPa East 2mph /  3.2km/h 2mph /  3.2km/h 39% 0in /  0.0mm 301 W/m2
15:41 79 °F /  26.1 °C 52 °F /  11.1 °C 29.9in /  1012.9hPa ESE 0.9mph /  1.4km/h 7mph /  11.3km/h 39% 0in /  0.0mm 338 W/m2
15:46 78.8 °F /  26 °C 52.5 °F /  11.4 °C 29.9in /  1012.9hPa SE 2.9mph /  4.7km/h 3mph /  4.8km/h 40% 0in /  0.0mm 432 W/m2
15:51 78.6 °F /  25.9 °C 51.6 °F /  10.9 °C 29.9in /  1012.9hPa Calm   4mph /  6.4km/h 39% 0in /  0.0mm 406 W/m2
15:56 78.6 °F /  25.9 °C 51.6 °F /  10.9 °C 29.9in /  1012.9hPa ESE 0.9mph /  1.4km/h 1mph /  1.6km/h 39% 0in /  0.0mm 336 W/m2
16:01 78.6 °F /  25.9 °C 51.6 °F /  10.9 °C 29.9in /  1012.9hPa Calm   2mph /  3.2km/h 39% 0in /  0.0mm 285 W/m2
16:06 78.6 °F /  25.9 °C 50.9 °F /  10.5 °C 29.9in /  1012.9hPa ENE 0.9mph /  1.4km/h 4mph /  6.4km/h 38% 0in /  0.0mm 269 W/m2
16:11 78.4 °F /  25.8 °C 51.4 °F /  10.8 °C 29.9in /  1012.9hPa NE 0.9mph /  1.4km/h 4mph /  6.4km/h 39% 0in /  0.0mm 267 W/m2
16:16 78.3 °F /  25.7 °C 50.5 °F /  10.3 °C 29.9in /  1012.9hPa SSW 0.9mph /  1.4km/h 2mph /  3.2km/h 38% 0in /  0.0mm 288 W/m2
16:21 78.1 °F /  25.6 °C 51.1 °F /  10.6 °C 29.9in /  1012.9hPa Calm   2mph /  3.2km/h 39% 0in /  0.0mm 281 W/m2
16:26 78.3 °F /  25.7 °C 51.3 °F /  10.7 °C 29.9in /  1012.9hPa ENE 0.9mph /  1.4km/h 3mph /  4.8km/h 39% 0in /  0.0mm 294 W/m2
16:31 78.6 °F /  25.9 °C 50.9 °F /  10.5 °C 29.9in /  1012.9hPa Calm   3mph /  4.8km/h 38% 0in /  0.0mm 468 W/m2
16:36 79.2 °F /  26.2 °C 50.7 °F /  10.4 °C 29.9in /  1012.9hPa NNE 0.9mph /  1.4km/h 2mph /  3.2km/h 37% 0in /  0.0mm 536 W/m2
16:41 79.7 °F /  26.5 °C 50.4 °F /  10.2 °C 29.9in /  1012.9hPa ENE 2.9mph /  4.7km/h 4mph /  6.4km/h 36% 0in /  0.0mm 578 W/m2
16:46 80.2 °F /  26.8 °C 50.2 °F /  10.1 °C 29.9in /  1012.9hPa NW 0.9mph /  1.4km/h 7mph /  11.3km/h 35% 0in /  0.0mm 587 W/m2
16:51 80.1 °F /  26.7 °C 50.7 °F /  10.4 °C 29.9in /  1012.9hPa ENE 2mph /  3.2km/h 6mph /  9.7km/h 36% 0in /  0.0mm 573 W/m2
16:56 80.4 °F /  26.9 °C 51.1 °F /  10.6 °C 29.9in /  1012.9hPa NW 0.9mph /  1.4km/h 3mph /  4.8km/h 36% 0in /  0.0mm 438 W/m2
17:01 80.4 °F /  26.9 °C 51.1 °F /  10.6 °C 29.9in /  1012.5hPa NNW 0.9mph /  1.4km/h 6mph /  9.7km/h 36% 0in /  0.0mm 267 W/m2
17:06 80.2 °F /  26.8 °C 49.3 °F /  9.6 °C 29.9in /  1012.5hPa ENE 2.9mph /  4.7km/h 4mph /  6.4km/h 34% 0in /  0.0mm 339 W/m2
17:11 80.1 °F /  26.7 °C 50 °F /  10 °C 29.9in /  1012.5hPa ENE 4mph /  6.4km/h 8mph /  12.9km/h 35% 0in /  0.0mm 381 W/m2
17:16 79.9 °F /  26.6 °C 49.8 °F /  9.9 °C 29.9in /  1012.5hPa Calm   3mph /  4.8km/h 35% 0in /  0.0mm 325 W/m2
17:21 80.1 °F /  26.7 °C 45 °F /  7.2 °C 29.9in /  1012.5hPa WNW 2.9mph /  4.7km/h 5mph /  8km/h 29% 0in /  0.0mm 406 W/m2
17:26 80.4 °F /  26.9 °C 44.2 °F /  6.8 °C 29.9in /  1012.5hPa NNW 2mph /  3.2km/h 4mph /  6.4km/h 28% 0in /  0.0mm 306 W/m2
17:31 80.4 °F /  26.9 °C 45.3 °F /  7.4 °C 29.9in /  1012.5hPa WNW 2.9mph /  4.7km/h 5mph /  8km/h 29% 0in /  0.0mm 374 W/m2
17:36 80.8 °F /  27.1 °C 44.6 °F /  7 °C 29.9in /  1012.5hPa WNW 0.9mph /  1.4km/h 3mph /  4.8km/h 28% 0in /  0.0mm 299 W/m2
17:41 80.8 °F /  27.1 °C 45.5 °F /  7.5 °C 29.9in /  1012.5hPa SE 2.9mph /  4.7km/h 4mph /  6.4km/h 29% 0in /  0.0mm 229 W/m2
17:46 80.2 °F /  26.8 °C 45.1 °F /  7.3 °C 29.9in /  1012.5hPa NNW 0.9mph /  1.4km/h 3mph /  4.8km/h 29% 0in /  0.0mm 162 W/m2
17:51 79.9 °F /  26.6 °C 44.8 °F /  7.1 °C 29.9in /  1012.5hPa ESE 0.9mph /  1.4km/h 4mph /  6.4km/h 29% 0in /  0.0mm 169 W/m2
17:56 79.7 °F /  26.5 °C 45.5 °F /  7.5 °C 29.9in /  1012.5hPa NE 2.9mph /  4.7km/h 4mph /  6.4km/h 30% 0in /  0.0mm 155 W/m2
18:01 79.3 °F /  26.3 °C 44.2 °F /  6.8 °C 29.9in /  1012.5hPa SE 2mph /  3.2km/h 2mph /  3.2km/h 29% 0in /  0.0mm 120 W/m2
18:06 79.2 °F /  26.2 °C 44.2 °F /  6.8 °C 29.9in /  1012.5hPa ENE 2.9mph /  4.7km/h 4mph /  6.4km/h 29% 0in /  0.0mm 179 W/m2
18:11 78.8 °F /  26 °C 43 °F /  6.1 °C 29.9in /  1012.9hPa ENE 4mph /  6.4km/h 4mph /  6.4km/h 28% 0in /  0.0mm 158 W/m2
18:16 78.6 °F /  25.9 °C 42.8 °F /  6 °C 29.9in /  1012.9hPa Calm   1mph /  1.6km/h 28% 0in /  0.0mm 135 W/m2
18:21 78.4 °F /  25.8 °C 43.5 °F /  6.4 °C 29.9in /  1012.9hPa Calm   1mph /  1.6km/h 29% 0in /  0.0mm 151 W/m2
18:26 78.3 °F /  25.7 °C 43.3 °F /  6.3 °C 29.9in /  1012.9hPa East 0.9mph /  1.4km/h 2mph /  3.2km/h 29% 0in /  0.0mm 149 W/m2
18:31 77.9 °F /  25.5 °C 43.2 °F /  6.2 °C 29.9in /  1012.9hPa East 4mph /  6.4km/h 4mph /  6.4km/h 29% 0in /  0.0mm 134 W/m2
18:36 77.7 °F /  25.4 °C 43.9 °F /  6.6 °C 29.9in /  1012.9hPa SE 0.9mph /  1.4km/h 2mph /  3.2km/h 30% 0in /  0.0mm 142 W/m2
18:41 77.4 °F /  25.2 °C 44.4 °F /  6.9 °C 29.9in /  1012.9hPa SE 0.9mph /  1.4km/h 2mph /  3.2km/h 31% 0in /  0.0mm 62 W/m2
18:46 76.6 °F /  24.8 °C 43.7 °F /  6.5 °C 29.9in /  1012.9hPa Calm   2mph /  3.2km/h 31% 0in /  0.0mm 42 W/m2
18:51 76.3 °F /  24.6 °C 44.2 °F /  6.8 °C 29.9in /  1012.9hPa ENE 0.9mph /  1.4km/h 2mph /  3.2km/h 32% 0in /  0.0mm 39 W/m2
18:56 75.6 °F /  24.2 °C 45.1 °F /  7.3 °C 29.9in /  1012.9hPa East 0.9mph /  1.4km/h 2mph /  3.2km/h 34% 0in /  0.0mm 33 W/m2
19:01 74.8 °F /  23.8 °C 45.3 °F /  7.4 °C 29.9in /  1012.9hPa SSE 2mph /  3.2km/h 2mph /  3.2km/h 35% 0in /  0.0mm 32 W/m2
19:06 74.3 °F /  23.5 °C 45 °F /  7.2 °C 29.9in /  1012.9hPa East 0.9mph /  1.4km/h 2mph /  3.2km/h 35% 0in /  0.0mm 28 W/m2
19:11 73.8 °F /  23.2 °C 45.9 °F /  7.7 °C 29.9in /  1012.9hPa Calm   2mph /  3.2km/h 37% 0in /  0.0mm 25 W/m2
19:16 73.2 °F /  22.9 °C 46 °F /  7.8 °C 29.9in /  1012.9hPa Calm   1mph /  1.6km/h 38% 0in /  0.0mm 21 W/m2
19:21 72.7 °F /  22.6 °C 46.2 °F /  7.9 °C 29.9in /  1012.9hPa Calm   1mph /  1.6km/h 39% 0in /  0.0mm 19 W/m2
19:26 72 °F /  22.2 °C 46.4 °F /  8 °C 29.9in /  1012.9hPa Calm   2mph /  3.2km/h 40% 0in /  0.0mm 14 W/m2
19:31 71.2 °F /  21.8 °C 45.7 °F /  7.6 °C 29.9in /  1012.9hPa East 0.9mph /  1.4km/h 2mph /  3.2km/h 40% 0in /  0.0mm 11 W/m2
19:36 70.3 °F /  21.3 °C 46.2 °F /  7.9 °C 29.9in /  1013.2hPa Calm   1mph /  1.6km/h 42% 0in /  0.0mm 7 W/m2
19:41 69.8 °F /  21 °C 45.7 °F /  7.6 °C 29.9in /  1013.2hPa East 0.9mph /  1.4km/h 1mph /  1.6km/h 42% 0in /  0.0mm 0 W/m2
19:46 69.3 °F /  20.7 °C 45.9 °F /  7.7 °C 29.9in /  1013.2hPa SE 2mph /  3.2km/h 2mph /  3.2km/h 43% 0in /  0.0mm 0 W/m2
19:51 68.7 °F /  20.4 °C 45.9 °F /  7.7 °C 29.9in /  1013.2hPa SE 0.9mph /  1.4km/h 2mph /  3.2km/h 44% 0in /  0.0mm 0 W/m2
19:56 68.2 °F /  20.1 °C 46 °F /  7.8 °C 29.9in /  1013.2hPa SE 0.9mph /  1.4km/h 2mph /  3.2km/h 45% 0in /  0.0mm 0 W/m2
20:01 67.6 °F /  19.8 °C 45.5 °F /  7.5 °C 29.9in /  1013.2hPa SE 0.9mph /  1.4km/h 2mph /  3.2km/h 45% 0in /  0.0mm 0 W/m2
20:06 67.1 °F /  19.5 °C 45.7 °F /  7.6 °C 29.9in /  1013.2hPa SE 0.9mph /  1.4km/h 2mph /  3.2km/h 46% 0in /  0.0mm 0 W/m2
20:11 66.7 °F /  19.3 °C 45.3 °F /  7.4 °C 29.9in /  1013.5hPa Calm     46% 0in /  0.0mm 0 W/m2
20:16 66.4 °F /  19.1 °C 45.5 °F /  7.5 °C 29.9in /  1013.2hPa SE 2mph /  3.2km/h 2mph /  3.2km/h 47% 0in /  0.0mm 0 W/m2
20:21 65.8 °F /  18.8 °C 45.7 °F /  7.6 °C 29.9in /  1013.5hPa SE 0.9mph /  1.4km/h 2mph /  3.2km/h 48% 0in /  0.0mm 0 W/m2
20:26 65.5 °F /  18.6 °C 45.3 °F /  7.4 °C 29.9in /  1013.5hPa SE 0.9mph /  1.4km/h 2mph /  3.2km/h 48% 0in /  0.0mm 0 W/m2
20:31 65.1 °F /  18.4 °C 45 °F /  7.2 °C 29.9in /  1013.5hPa Calm     48% 0in /  0.0mm 0 W/m2
20:36 64.9 °F /  18.3 °C 44.8 °F /  7.1 °C 29.9in /  1013.5hPa SE 0.9mph /  1.4km/h 2mph /  3.2km/h 48% 0in /  0.0mm 0 W/m2
20:41 64.8 °F /  18.2 °C 45.1 °F /  7.3 °C 29.9in /  1013.5hPa SSE 2mph /  3.2km/h 2mph /  3.2km/h 49% 0in /  0.0mm 0 W/m2
20:46 64.6 °F /  18.1 °C 44.4 °F /  6.9 °C 29.9in /  1013.5hPa SSE 2mph /  3.2km/h 2mph /  3.2km/h 48% 0in /  0.0mm 0 W/m2
20:51 64.6 °F /  18.1 °C 45 °F /  7.2 °C 29.9in /  1013.5hPa Calm   1mph /  1.6km/h 49% 0in /  0.0mm 0 W/m2
20:56 64.8 °F /  18.2 °C 44.6 °F /  7 °C 29.9in /  1013.5hPa Calm   2mph /  3.2km/h 48% 0in /  0.0mm 0 W/m2
21:01 64.8 °F /  18.2 °C 44.6 °F /  7 °C 29.9in /  1013.5hPa Calm     48% 0in /  0.0mm 0 W/m2
21:06 64.6 °F /  18.1 °C 45 °F /  7.2 °C 29.9in /  1013.9hPa SSE 0.9mph /  1.4km/h 2mph /  3.2km/h 49% 0in /  0.0mm 0 W/m2
21:11 64.2 °F /  17.9 °C 44.6 °F /  7 °C 29.9in /  1013.9hPa Calm   1mph /  1.6km/h 49% 0in /  0.0mm 0 W/m2
21:16 64 °F /  17.8 °C 44.4 °F /  6.9 °C 29.9in /  1013.9hPa South 0.9mph /  1.4km/h 3mph /  4.8km/h 49% 0in /  0.0mm 0 W/m2
21:21 64 °F /  17.8 °C 44.4 °F /  6.9 °C 29.9in /  1013.9hPa Calm   1mph /  1.6km/h 49% 0in /  0.0mm 0 W/m2
21:26 63.9 °F /  17.7 °C 44.2 °F /  6.8 °C 30in /  1014.2hPa Calm   3mph /  4.8km/h 49% 0in /  0.0mm 0 W/m2
21:31 63.9 °F /  17.7 °C 44.2 °F /  6.8 °C 30in /  1014.2hPa South 0.9mph /  1.4km/h 1mph /  1.6km/h 49% 0in /  0.0mm 0 W/m2
21:36 63.9 °F /  17.7 °C 44.8 °F /  7.1 °C 30in /  1014.2hPa Calm   1mph /  1.6km/h 50% 0in /  0.0mm 0 W/m2
21:41 63.9 °F /  17.7 °C 45.3 °F /  7.4 °C 30in /  1014.2hPa Calm   2mph /  3.2km/h 51% 0in /  0.0mm 0 W/m2
21:46 63.7 °F /  17.6 °C 44.8 °F /  7.1 °C 30in /  1014.2hPa Calm   2mph /  3.2km/h 50% 0in /  0.0mm 0 W/m2
21:51 63.7 °F /  17.6 °C 45.1 °F /  7.3 °C 30in /  1014.2hPa South 0.9mph /  1.4km/h 2mph /  3.2km/h 51% 0in /  0.0mm 0 W/m2
21:57 63.9 °F /  17.7 °C 45.3 °F /  7.4 °C 30in /  1014.2hPa South 0.9mph /  1.4km/h 1mph /  1.6km/h 51% 0in /  0.0mm 0 W/m2
22:02 63.7 °F /  17.6 °C 45.1 °F /  7.3 °C 30in /  1014.2hPa Calm   3mph /  4.8km/h 51% 0in /  0.0mm 0 W/m2
22:07 63.9 °F /  17.7 °C 45.3 °F /  7.4 °C 30in /  1014.2hPa South 0.9mph /  1.4km/h 1mph /  1.6km/h 51% 0in /  0.0mm 0 W/m2
22:12 63.9 °F /  17.7 °C 45.3 °F /  7.4 °C 30in /  1014.2hPa Calm   3mph /  4.8km/h 51% 0in /  0.0mm 0 W/m2
22:17 63.9 °F /  17.7 °C 45.9 °F /  7.7 °C 30in /  1014.2hPa South 0.9mph /  1.4km/h 1mph /  1.6km/h 52% 0in /  0.0mm 0 W/m2
22:22 63.5 °F /  17.5 °C 45.5 °F /  7.5 °C 30in /  1014.2hPa Calm   2mph /  3.2km/h 52% 0in /  0.0mm 0 W/m2
22:27 63.1 °F /  17.3 °C 45.7 °F /  7.6 °C 30in /  1014.2hPa South 2mph /  3.2km/h 2mph /  3.2km/h 53% 0in /  0.0mm 0 W/m2
22:32 63 °F /  17.2 °C 46 °F /  7.8 °C 30in /  1014.2hPa Calm   1mph /  1.6km/h 54% 0in /  0.0mm 0 W/m2
22:37 62.6 °F /  17 °C 45.7 °F /  7.6 °C 30in /  1014.2hPa South 0.9mph /  1.4km/h 2mph /  3.2km/h 54% 0in /  0.0mm 0 W/m2
22:42 62.2 °F /  16.8 °C 45.9 °F /  7.7 °C 30in /  1014.2hPa Calm   2mph /  3.2km/h 55% 0in /  0.0mm 0 W/m2
22:47 62.1 °F /  16.7 °C 45.7 °F /  7.6 °C 30in /  1014.2hPa Calm   2mph /  3.2km/h 55% 0in /  0.0mm 0 W/m2
22:52 61.5 °F /  16.4 °C 45.7 °F /  7.6 °C 30in /  1014.2hPa South 0.9mph /  1.4km/h 1mph /  1.6km/h 56% 0in /  0.0mm 0 W/m2
22:57 61.3 °F /  16.3 °C 45.5 °F /  7.5 °C 30in /  1014.2hPa Calm   2mph /  3.2km/h 56% 0in /  0.0mm 0 W/m2
23:02 61 °F /  16.1 °C 45.7 °F /  7.6 °C 30in /  1014.2hPa South 0.9mph /  1.4km/h 1mph /  1.6km/h 57% 0in /  0.0mm 0 W/m2
23:07 60.6 °F /  15.9 °C 45.7 °F /  7.6 °C 30in /  1014.2hPa South 0.9mph /  1.4km/h 2mph /  3.2km/h 58% 0in /  0.0mm 0 W/m2
23:12 60.4 °F /  15.8 °C 45.7 °F /  7.6 °C 30in /  1014.2hPa Calm   2mph /  3.2km/h 58% 0in /  0.0mm 0 W/m2
23:17 60.3 °F /  15.7 °C 45.5 °F /  7.5 °C 30in /  1014.2hPa Calm   2mph /  3.2km/h 58% 0in /  0.0mm 0 W/m2
23:22 60.1 °F /  15.6 °C 45.7 °F /  7.6 °C 30in /  1014.2hPa South 0.9mph /  1.4km/h 2mph /  3.2km/h 59% 0in /  0.0mm 0 W/m2
23:27 59.9 °F /  15.5 °C 45.5 °F /  7.5 °C 30in /  1014.6hPa South 0.9mph /  1.4km/h 2mph /  3.2km/h 59% 0in /  0.0mm 0 W/m2
23:32 59.7 °F /  15.4 °C 45.3 °F /  7.4 °C 30in /  1014.6hPa Calm   1mph /  1.6km/h 59% 0in /  0.0mm 0 W/m2
23:37 59.5 °F /  15.3 °C 45.1 °F /  7.3 °C 30in /  1014.6hPa Calm   2mph /  3.2km/h 59% 0in /  0.0mm 0 W/m2
23:42 59.5 °F /  15.3 °C 45.7 °F /  7.6 °C 30in /  1014.6hPa Calm     60% 0in /  0.0mm 0 W/m2
23:47 59.4 °F /  15.2 °C 45.5 °F /  7.5 °C 30in /  1014.6hPa Calm   1mph /  1.6km/h 60% 0in /  0.0mm 0 W/m2
23:52 59.2 °F /  15.1 °C 45.7 °F /  7.6 °C 30in /  1014.6hPa Calm   1mph /  1.6km/h 61% 0in /  0.0mm 0 W/m2
23:57 58.8 °F /  14.9 °C 45.3 °F /  7.4 °C 30in /  1014.2hPa Calm     61% 0in /  0.0mm 0 W/m2
Juneau County Weather
Compliments of Weather Underground - 4 mb